sensor_id;sensor_type;location;lat;lon;timestamp;temperature;humidity
35565;DHT22;21668;44.784;10.336;2022-09-27T00:01:44;14.90;99.90
35565;DHT22;21668;44.784;10.336;2022-09-27T00:04:49;15.70;99.90
35565;DHT22;21668;44.784;10.336;2022-09-27T00:07:53;14.70;99.90
35565;DHT22;21668;44.784;10.336;2022-09-27T00:11:05;15.00;99.90
35565;DHT22;21668;44.784;10.336;2022-09-27T00:14:11;15.10;99.90
35565;DHT22;21668;44.784;10.336;2022-09-27T00:17:16;15.20;99.90
35565;DHT22;21668;44.784;10.336;2022-09-27T00:20:20;15.10;99.90
35565;DHT22;21668;44.784;10.336;2022-09-27T00:29:33;15.40;99.90
35565;DHT22;21668;44.784;10.336;2022-09-27T00:32:38;15.30;99.90
35565;DHT22;21668;44.784;10.336;2022-09-27T00:35:43;15.20;99.90
35565;DHT22;21668;44.784;10.336;2022-09-27T00:38:53;15.20;99.90
35565;DHT22;21668;44.784;10.336;2022-09-27T00:41:58;15.20;99.90
35565;DHT22;21668;44.784;10.336;2022-09-27T00:45:23;15.30;99.90
35565;DHT22;21668;44.784;10.336;2022-09-27T00:48:30;15.50;99.90
35565;DHT22;21668;44.784;10.336;2022-09-27T00:51:38;15.60;99.90
35565;DHT22;21668;44.784;10.336;2022-09-27T00:54:56;15.70;99.90
35565;DHT22;21668;44.784;10.336;2022-09-27T00:58:02;15.80;99.90
35565;DHT22;21668;44.784;10.336;2022-09-27T01:01:08;15.80;99.90
35565;DHT22;21668;44.784;10.336;2022-09-27T01:04:20;15.80;99.90
35565;DHT22;21668;44.784;10.336;2022-09-27T01:10:35;15.70;99.90
35565;DHT22;21668;44.784;10.336;2022-09-27T01:14:23;15.70;99.90
35565;DHT22;21668;44.784;10.336;2022-09-27T01:24:39;15.40;99.90
35565;DHT22;21668;44.784;10.336;2022-09-27T06:02:38;13.00;99.90
35565;DHT22;21668;44.784;10.336;2022-09-27T06:06:40;13.30;99.90
35565;DHT22;21668;44.784;10.336;2022-09-27T06:10:13;13.40;99.90
35565;DHT22;21668;44.784;10.336;2022-09-27T06:13:43;13.40;99.90
35565;DHT22;21668;44.784;10.336;2022-09-27T06:18:20;13.30;99.90
35565;DHT22;21668;44.784;10.336;2022-09-27T06:22:14;14.00;99.90
35565;DHT22;21668;44.784;10.336;2022-09-27T06:31:06;13.90;99.90
35565;DHT22;21668;44.784;10.336;2022-09-27T06:42:25;14.50;99.90
35565;DHT22;21668;44.784;10.336;2022-09-27T06:46:28;14.80;99.90
35565;DHT22;21668;44.784;10.336;2022-09-27T06:50:52;15.10;99.90
35565;DHT22;21668;44.784;10.336;2022-09-27T06:55:45;15.10;99.90
35565;DHT22;21668;44.784;10.336;2022-09-27T07:00:13;15.20;99.90
35565;DHT22;21668;44.784;10.336;2022-09-27T07:55:26;16.50;99.90
35565;DHT22;21668;44.784;10.336;2022-09-27T08:10:03;17.00;99.90
35565;DHT22;21668;44.784;10.336;2022-09-27T08:23:39;17.50;99.90
35565;DHT22;21668;44.784;10.336;2022-09-27T08:40:15;18.00;99.90
35565;DHT22;21668;44.784;10.336;2022-09-27T08:44:10;18.20;99.90
35565;DHT22;21668;44.784;10.336;2022-09-27T08:48:44;18.30;99.90
35565;DHT22;21668;44.784;10.336;2022-09-27T09:11:13;18.90;99.90
35565;DHT22;21668;44.784;10.336;2022-09-27T09:19:22;19.20;99.90
35565;DHT22;21668;44.784;10.336;2022-09-27T09:23:06;19.40;99.90
35565;DHT22;21668;44.784;10.336;2022-09-27T09:26:59;19.50;99.90
35565;DHT22;21668;44.784;10.336;2022-09-27T09:30:40;19.60;99.90
35565;DHT22;21668;44.784;10.336;2022-09-27T09:33:54;19.70;99.90
35565;DHT22;21668;44.784;10.336;2022-09-27T09:37:20;19.80;99.90
35565;DHT22;21668;44.784;10.336;2022-09-27T09:44:50;19.90;99.90
35565;DHT22;21668;44.784;10.336;2022-09-27T09:48:28;20.20;99.90
35565;DHT22;21668;44.784;10.336;2022-09-27T09:51:42;20.20;99.90
35565;DHT22;21668;44.784;10.336;2022-09-27T09:55:15;20.10;99.90
35565;DHT22;21668;44.784;10.336;2022-09-27T09:58:33;20.30;99.90
35565;DHT22;21668;44.784;10.336;2022-09-27T10:01:46;20.40;99.90
35565;DHT22;21668;44.784;10.336;2022-09-27T10:04:54;20.40;99.90
35565;DHT22;21668;44.784;10.336;2022-09-27T10:09:21;20.50;99.90
35565;DHT22;21668;44.784;10.336;2022-09-27T10:14:02;20.90;99.90
35565;DHT22;21668;44.784;10.336;2022-09-27T10:35:33;21.30;99.90
35565;DHT22;21668;44.784;10.336;2022-09-27T10:53:34;21.70;99.90
35565;DHT22;21668;44.784;10.336;2022-09-27T10:57:33;21.40;99.90
35565;DHT22;21668;44.784;10.336;2022-09-27T11:05:43;22.00;99.90
35565;DHT22;21668;44.784;10.336;2022-09-27T11:15:06;22.00;99.90
35565;DHT22;21668;44.784;10.336;2022-09-27T11:38:20;22.30;99.90
35565;DHT22;21668;44.784;10.336;2022-09-27T11:52:16;22.50;99.90
35565;DHT22;21668;44.784;10.336;2022-09-27T11:55:54;22.60;99.90
35565;DHT22;21668;44.784;10.336;2022-09-27T11:59:36;22.70;99.90
35565;DHT22;21668;44.784;10.336;2022-09-27T12:10:11;22.70;99.90
35565;DHT22;21668;44.784;10.336;2022-09-27T12:13:36;23.10;99.90
35565;DHT22;21668;44.784;10.336;2022-09-27T12:21:31;22.60;99.90
35565;DHT22;21668;44.784;10.336;2022-09-27T12:25:17;22.40;99.90
35565;DHT22;21668;44.784;10.336;2022-09-27T12:28:39;22.40;99.90
35565;DHT22;21668;44.784;10.336;2022-09-27T12:32:17;22.40;99.90
35565;DHT22;21668;44.784;10.336;2022-09-27T12:35:31;22.50;99.90
35565;DHT22;21668;44.784;10.336;2022-09-27T12:38:59;22.40;99.90
35565;DHT22;21668;44.784;10.336;2022-09-27T13:04:28;23.10;99.90
35565;DHT22;21668;44.784;10.336;2022-09-27T13:15:21;22.70;99.90
35565;DHT22;21668;44.784;10.336;2022-09-27T13:29:24;22.40;99.90
35565;DHT22;21668;44.784;10.336;2022-09-27T13:32:30;22.40;99.90
35565;DHT22;21668;44.784;10.336;2022-09-27T13:35:41;22.60;99.90
35565;DHT22;21668;44.784;10.336;2022-09-27T13:42:29;22.40;99.90
35565;DHT22;21668;44.784;10.336;2022-09-27T13:46:02;22.40;99.90
35565;DHT22;21668;44.784;10.336;2022-09-27T13:49:30;22.30;99.90
35565;DHT22;21668;44.784;10.336;2022-09-27T13:52:56;22.20;99.90
35565;DHT22;21668;44.784;10.336;2022-09-27T14:02:30;22.30;99.90
35565;DHT22;21668;44.784;10.336;2022-09-27T14:06:02;22.50;99.90
35565;DHT22;21668;44.784;10.336;2022-09-27T14:09:18;22.70;99.90
35565;DHT22;21668;44.784;10.336;2022-09-27T14:12:38;22.80;99.90
35565;DHT22;21668;44.784;10.336;2022-09-27T14:15:53;22.90;99.90
35565;DHT22;21668;44.784;10.336;2022-09-27T14:22:16;23.20;99.90
35565;DHT22;21668;44.784;10.336;2022-09-27T14:25:42;23.20;99.90
35565;DHT22;21668;44.784;10.336;2022-09-27T14:28:47;23.40;99.90
35565;DHT22;21668;44.784;10.336;2022-09-27T14:32:13;23.20;99.90
35565;DHT22;21668;44.784;10.336;2022-09-27T14:35:51;23.30;99.90
35565;DHT22;21668;44.784;10.336;2022-09-27T14:39:21;23.30;99.90
35565;DHT22;21668;44.784;10.336;2022-09-27T14:42:28;23.20;99.90
35565;DHT22;21668;44.784;10.336;2022-09-27T14:46:02;23.50;99.90
35565;DHT22;21668;44.784;10.336;2022-09-27T14:49:23;23.40;99.90
35565;DHT22;21668;44.784;10.336;2022-09-27T14:52:31;23.60;99.90
35565;DHT22;21668;44.784;10.336;2022-09-27T14:58:44;23.40;99.90
35565;DHT22;21668;44.784;10.336;2022-09-27T15:01:49;23.40;99.90
35565;DHT22;21668;44.784;10.336;2022-09-27T15:04:58;22.90;99.90
35565;DHT22;21668;44.784;10.336;2022-09-27T15:08:04;23.10;99.90
35565;DHT22;21668;44.784;10.336;2022-09-27T15:11:12;23.10;99.90
35565;DHT22;21668;44.784;10.336;2022-09-27T15:14:18;23.00;99.90
35565;DHT22;21668;44.784;10.336;2022-09-27T15:20:30;22.80;99.90
35565;DHT22;21668;44.784;10.336;2022-09-27T15:23:40;22.30;99.90
35565;DHT22;21668;44.784;10.336;2022-09-27T15:26:46;22.20;99.90
35565;DHT22;21668;44.784;10.336;2022-09-27T15:30:04;22.60;99.90
35565;DHT22;21668;44.784;10.336;2022-09-27T15:33:37;22.30;99.90
35565;DHT22;21668;44.784;10.336;2022-09-27T15:40:40;22.30;99.90
35565;DHT22;21668;44.784;10.336;2022-09-27T15:43:48;22.00;99.90
35565;DHT22;21668;44.784;10.336;2022-09-27T15:49:57;22.10;99.90
35565;DHT22;21668;44.784;10.336;2022-09-27T15:56:12;22.00;99.90
35565;DHT22;21668;44.784;10.336;2022-09-27T15:59:22;21.90;99.90
35565;DHT22;21668;44.784;10.336;2022-09-27T16:02:31;21.90;99.90
35565;DHT22;21668;44.784;10.336;2022-09-27T16:05:35;21.70;99.90
35565;DHT22;21668;44.784;10.336;2022-09-27T16:08:40;21.60;99.90
35565;DHT22;21668;44.784;10.336;2022-09-27T16:11:47;21.60;99.90
35565;DHT22;21668;44.784;10.336;2022-09-27T16:14:52;21.60;99.90
35565;DHT22;21668;44.784;10.336;2022-09-27T16:21:03;21.30;99.90
35565;DHT22;21668;44.784;10.336;2022-09-27T16:24:12;21.10;99.90
35565;DHT22;21668;44.784;10.336;2022-09-27T16:27:26;21.10;99.90
35565;DHT22;21668;44.784;10.336;2022-09-27T16:30:32;21.00;99.90
35565;DHT22;21668;44.784;10.336;2022-09-27T16:33:36;20.90;99.90
35565;DHT22;21668;44.784;10.336;2022-09-27T16:36:42;20.70;99.90
35565;DHT22;21668;44.784;10.336;2022-09-27T16:39:49;20.70;99.90
35565;DHT22;21668;44.784;10.336;2022-09-27T16:42:56;20.50;99.90
35565;DHT22;21668;44.784;10.336;2022-09-27T16:46:05;20.40;99.90
35565;DHT22;21668;44.784;10.336;2022-09-27T16:49:11;20.40;99.90
35565;DHT22;21668;44.784;10.336;2022-09-27T16:52:34;20.30;99.90
35565;DHT22;21668;44.784;10.336;2022-09-27T16:55:39;20.10;99.90
35565;DHT22;21668;44.784;10.336;2022-09-27T16:58:43;20.10;99.90
35565;DHT22;21668;44.784;10.336;2022-09-27T17:01:48;19.90;99.90
35565;DHT22;21668;44.784;10.336;2022-09-27T17:04:53;19.90;99.90
35565;DHT22;21668;44.784;10.336;2022-09-27T17:08:19;19.70;99.90
35565;DHT22;21668;44.784;10.336;2022-09-27T17:11:23;19.70;99.90
35565;DHT22;21668;44.784;10.336;2022-09-27T17:26:47;19.20;99.90
35565;DHT22;21668;44.784;10.336;2022-09-27T17:29:54;18.90;99.90
35565;DHT22;21668;44.784;10.336;2022-09-27T17:36:14;18.80;99.90
35565;DHT22;21668;44.784;10.336;2022-09-27T17:39:25;18.40;99.90
35565;DHT22;21668;44.784;10.336;2022-09-27T17:42:29;18.20;99.90
35565;DHT22;21668;44.784;10.336;2022-09-27T17:45:41;18.50;99.90
35565;DHT22;21668;44.784;10.336;2022-09-27T17:48:50;18.20;99.90
35565;DHT22;21668;44.784;10.336;2022-09-27T17:52:13;18.10;99.90
35565;DHT22;21668;44.784;10.336;2022-09-27T17:58:22;18.50;99.90
35565;DHT22;21668;44.784;10.336;2022-09-27T18:04:31;18.00;99.90
35565;DHT22;21668;44.784;10.336;2022-09-27T18:16:49;18.10;99.90
35565;DHT22;21668;44.784;10.336;2022-09-27T18:23:00;17.30;99.90
35565;DHT22;21668;44.784;10.336;2022-09-27T18:26:05;17.80;99.90
35565;DHT22;21668;44.784;10.336;2022-09-27T18:29:16;18.00;99.90
35565;DHT22;21668;44.784;10.336;2022-09-27T18:32:24;17.70;99.90
35565;DHT22;21668;44.784;10.336;2022-09-27T18:35:33;17.60;99.90
35565;DHT22;21668;44.784;10.336;2022-09-27T18:38:40;17.50;99.90
35565;DHT22;21668;44.784;10.336;2022-09-27T18:41:51;17.60;99.90
35565;DHT22;21668;44.784;10.336;2022-09-27T18:45:00;17.40;99.90
35565;DHT22;21668;44.784;10.336;2022-09-27T18:48:05;17.60;99.90
35565;DHT22;21668;44.784;10.336;2022-09-27T18:51:16;17.60;99.90
35565;DHT22;21668;44.784;10.336;2022-09-27T18:54:21;17.70;99.90
35565;DHT22;21668;44.784;10.336;2022-09-27T18:57:27;17.60;99.90
35565;DHT22;21668;44.784;10.336;2022-09-27T19:00:33;17.70;99.90
35565;DHT22;21668;44.784;10.336;2022-09-27T19:03:39;17.70;99.90
35565;DHT22;21668;44.784;10.336;2022-09-27T19:06:51;17.70;99.90
35565;DHT22;21668;44.784;10.336;2022-09-27T19:10:00;17.60;99.90
35565;DHT22;21668;44.784;10.336;2022-09-27T19:16:11;17.50;99.90
35565;DHT22;21668;44.784;10.336;2022-09-27T19:19:26;17.50;99.90
35565;DHT22;21668;44.784;10.336;2022-09-27T19:25:39;17.20;99.90
35565;DHT22;21668;44.784;10.336;2022-09-27T19:28:46;17.10;99.90
35565;DHT22;21668;44.784;10.336;2022-09-27T19:31:51;17.20;99.90
35565;DHT22;21668;44.784;10.336;2022-09-27T19:34:56;16.80;99.90
35565;DHT22;21668;44.784;10.336;2022-09-27T19:38:04;17.10;99.90
35565;DHT22;21668;44.784;10.336;2022-09-27T19:41:12;16.90;99.90
35565;DHT22;21668;44.784;10.336;2022-09-27T19:44:18;16.90;99.90
35565;DHT22;21668;44.784;10.336;2022-09-27T19:47:23;17.00;99.90
35565;DHT22;21668;44.784;10.336;2022-09-27T19:50:33;17.00;99.90
35565;DHT22;21668;44.784;10.336;2022-09-27T19:53:38;17.00;99.90
35565;DHT22;21668;44.784;10.336;2022-09-27T19:56:43;17.00;99.90
35565;DHT22;21668;44.784;10.336;2022-09-27T19:59:46;16.90;99.90
35565;DHT22;21668;44.784;10.336;2022-09-27T20:02:51;16.90;99.90
35565;DHT22;21668;44.784;10.336;2022-09-27T20:05:57;16.80;99.90
35565;DHT22;21668;44.784;10.336;2022-09-27T20:09:03;16.90;99.90
35565;DHT22;21668;44.784;10.336;2022-09-27T20:12:07;17.30;99.90
35565;DHT22;21668;44.784;10.336;2022-09-27T20:15:12;17.00;99.90
35565;DHT22;21668;44.784;10.336;2022-09-27T20:18:19;16.90;99.90
35565;DHT22;21668;44.784;10.336;2022-09-27T20:21:27;16.20;99.90
35565;DHT22;21668;44.784;10.336;2022-09-27T20:24:33;17.00;99.90
35565;DHT22;21668;44.784;10.336;2022-09-27T20:27:38;16.90;99.90
35565;DHT22;21668;44.784;10.336;2022-09-27T20:30:55;17.00;99.90
35565;DHT22;21668;44.784;10.336;2022-09-27T20:34:00;17.10;99.90
35565;DHT22;21668;44.784;10.336;2022-09-27T20:37:08;17.00;99.90
35565;DHT22;21668;44.784;10.336;2022-09-27T20:40:16;17.20;99.90
35565;DHT22;21668;44.784;10.336;2022-09-27T20:43:25;17.00;99.90
35565;DHT22;21668;44.784;10.336;2022-09-27T20:46:32;17.00;99.90
35565;DHT22;21668;44.784;10.336;2022-09-27T20:52:42;17.80;99.90
35565;DHT22;21668;44.784;10.336;2022-09-27T20:58:52;16.90;99.90
35565;DHT22;21668;44.784;10.336;2022-09-27T21:11:13;16.90;99.90
35565;DHT22;21668;44.784;10.336;2022-09-27T21:14:17;17.00;99.90
35565;DHT22;21668;44.784;10.336;2022-09-27T21:23:31;16.80;99.90
35565;DHT22;21668;44.784;10.336;2022-09-27T21:32:44;16.70;99.90
35565;DHT22;21668;44.784;10.336;2022-09-27T21:35:48;16.60;99.90
35565;DHT22;21668;44.784;10.336;2022-09-27T21:38:53;16.60;99.90
35565;DHT22;21668;44.784;10.336;2022-09-27T21:45:02;16.60;99.90
35565;DHT22;21668;44.784;10.336;2022-09-27T21:48:06;16.60;99.90
35565;DHT22;21668;44.784;10.336;2022-09-27T21:51:14;16.50;99.90
35565;DHT22;21668;44.784;10.336;2022-09-27T21:57:22;16.70;99.90
35565;DHT22;21668;44.784;10.336;2022-09-27T22:00:26;16.50;99.90
35565;DHT22;21668;44.784;10.336;2022-09-27T22:03:34;16.40;99.90
35565;DHT22;21668;44.784;10.336;2022-09-27T22:06:39;16.60;99.90
35565;DHT22;21668;44.784;10.336;2022-09-27T22:09:42;16.40;99.90
35565;DHT22;21668;44.784;10.336;2022-09-27T22:12:46;15.90;99.90
35565;DHT22;21668;44.784;10.336;2022-09-27T22:15:50;16.30;99.90
35565;DHT22;21668;44.784;10.336;2022-09-27T22:18:55;16.40;99.90
35565;DHT22;21668;44.784;10.336;2022-09-27T22:25:04;16.30;99.90
35565;DHT22;21668;44.784;10.336;2022-09-27T22:28:08;16.20;99.90
35565;DHT22;21668;44.784;10.336;2022-09-27T22:31:12;16.20;99.90
35565;DHT22;21668;44.784;10.336;2022-09-27T22:34:21;16.20;99.90
35565;DHT22;21668;44.784;10.336;2022-09-27T22:43:41;16.20;99.90
35565;DHT22;21668;44.784;10.336;2022-09-27T22:46:46;16.00;99.90
35565;DHT22;21668;44.784;10.336;2022-09-27T22:52:54;16.00;99.90
35565;DHT22;21668;44.784;10.336;2022-09-27T23:05:15;16.10;99.90
35565;DHT22;21668;44.784;10.336;2022-09-27T23:08:19;16.00;99.90
35565;DHT22;21668;44.784;10.336;2022-09-27T23:11:24;16.10;99.90
35565;DHT22;21668;44.784;10.336;2022-09-27T23:17:35;15.90;99.90
35565;DHT22;21668;44.784;10.336;2022-09-27T23:23:44;15.90;99.90
35565;DHT22;21668;44.784;10.336;2022-09-27T23:26:49;15.90;99.90
35565;DHT22;21668;44.784;10.336;2022-09-27T23:30:14;15.70;99.90
35565;DHT22;21668;44.784;10.336;2022-09-27T23:33:19;15.70;99.90
35565;DHT22;21668;44.784;10.336;2022-09-27T23:36:23;15.90;99.90
35565;DHT22;21668;44.784;10.336;2022-09-27T23:51:47;15.90;99.90
35565;DHT22;21668;44.784;10.336;2022-09-27T23:54:51;16.70;99.90
